sensor_id;sensor_type;location;lat;lon;timestamp;temperature;humidity
7290;DHT22;63176;52.678;13.250;2023-04-09T00:00:15;5.20;99.90
7290;DHT22;63176;52.678;13.250;2023-04-09T00:02:41;5.20;99.90
7290;DHT22;63176;52.678;13.250;2023-04-09T00:05:07;5.20;99.90
7290;DHT22;63176;52.678;13.250;2023-04-09T00:07:32;5.10;99.90
7290;DHT22;63176;52.678;13.250;2023-04-09T00:09:58;5.00;99.90
7290;DHT22;63176;52.678;13.250;2023-04-09T00:12:24;5.00;99.90
7290;DHT22;63176;52.678;13.250;2023-04-09T00:14:50;4.90;99.90
7290;DHT22;63176;52.678;13.250;2023-04-09T00:17:15;4.70;99.90
7290;DHT22;63176;52.678;13.250;2023-04-09T00:19:41;5.00;99.90
7290;DHT22;63176;52.678;13.250;2023-04-09T00:22:07;4.70;99.90
7290;DHT22;63176;52.678;13.250;2023-04-09T00:24:33;4.70;99.90
7290;DHT22;63176;52.678;13.250;2023-04-09T00:26:58;4.80;99.90
7290;DHT22;63176;52.678;13.250;2023-04-09T00:29:24;4.70;99.90
7290;DHT22;63176;52.678;13.250;2023-04-09T00:31:50;5.00;99.90
7290;DHT22;63176;52.678;13.250;2023-04-09T00:34:15;4.60;99.90
7290;DHT22;63176;52.678;13.250;2023-04-09T00:36:41;4.60;99.90
7290;DHT22;63176;52.678;13.250;2023-04-09T00:39:06;4.50;99.90
7290;DHT22;63176;52.678;13.250;2023-04-09T00:41:32;4.40;99.90
7290;DHT22;63176;52.678;13.250;2023-04-09T00:43:58;4.40;99.90
7290;DHT22;63176;52.678;13.250;2023-04-09T00:46:23;4.40;99.90
7290;DHT22;63176;52.678;13.250;2023-04-09T00:48:49;4.50;99.90
7290;DHT22;63176;52.678;13.250;2023-04-09T00:51:15;4.50;99.90
7290;DHT22;63176;52.678;13.250;2023-04-09T00:53:41;4.30;99.90
7290;DHT22;63176;52.678;13.250;2023-04-09T00:56:09;4.20;99.90
7290;DHT22;63176;52.678;13.250;2023-04-09T00:58:36;4.50;99.90
7290;DHT22;63176;52.678;13.250;2023-04-09T01:01:02;4.40;99.90
7290;DHT22;63176;52.678;13.250;2023-04-09T01:03:27;4.30;99.90
7290;DHT22;63176;52.678;13.250;2023-04-09T01:06:07;4.20;99.90
7290;DHT22;63176;52.678;13.250;2023-04-09T01:14:31;4.20;99.90
7290;DHT22;63176;52.678;13.250;2023-04-09T01:17:23;4.10;99.90
7290;DHT22;63176;52.678;13.250;2023-04-09T01:20:02;4.10;99.90
7290;DHT22;63176;52.678;13.250;2023-04-09T01:25:18;4.20;99.90
7290;DHT22;63176;52.678;13.250;2023-04-09T01:30:39;4.40;99.90
7290;DHT22;63176;52.678;13.250;2023-04-09T01:33:08;4.40;99.90
7290;DHT22;63176;52.678;13.250;2023-04-09T01:35:34;4.50;99.90
7290;DHT22;63176;52.678;13.250;2023-04-09T01:38:01;4.60;99.90
7290;DHT22;63176;52.678;13.250;2023-04-09T01:40:28;4.70;99.90
7290;DHT22;63176;52.678;13.250;2023-04-09T01:42:54;4.90;99.90
7290;DHT22;63176;52.678;13.250;2023-04-09T01:45:21;4.90;99.90
7290;DHT22;63176;52.678;13.250;2023-04-09T01:47:47;4.90;99.90
7290;DHT22;63176;52.678;13.250;2023-04-09T01:50:13;5.20;99.90
7290;DHT22;63176;52.678;13.250;2023-04-09T01:52:39;5.00;99.90
7290;DHT22;63176;52.678;13.250;2023-04-09T01:55:05;5.10;99.90
7290;DHT22;63176;52.678;13.250;2023-04-09T01:57:31;5.20;99.90
7290;DHT22;63176;52.678;13.250;2023-04-09T01:59:56;5.40;99.90
7290;DHT22;63176;52.678;13.250;2023-04-09T02:02:27;5.30;99.90
7290;DHT22;63176;52.678;13.250;2023-04-09T02:04:59;5.40;99.90
7290;DHT22;63176;52.678;13.250;2023-04-09T02:07:39;5.60;99.90
7290;DHT22;63176;52.678;13.250;2023-04-09T02:10:08;5.60;99.90
7290;DHT22;63176;52.678;13.250;2023-04-09T02:12:36;5.50;99.90
7290;DHT22;63176;52.678;13.250;2023-04-09T02:15:03;5.60;99.90
7290;DHT22;63176;52.678;13.250;2023-04-09T02:17:30;5.60;99.90
7290;DHT22;63176;52.678;13.250;2023-04-09T02:19:55;5.70;99.90
7290;DHT22;63176;52.678;13.250;2023-04-09T02:22:21;5.70;99.90
7290;DHT22;63176;52.678;13.250;2023-04-09T02:24:47;5.90;99.90
7290;DHT22;63176;52.678;13.250;2023-04-09T02:27:12;5.60;99.90
7290;DHT22;63176;52.678;13.250;2023-04-09T02:29:39;5.60;99.90
7290;DHT22;63176;52.678;13.250;2023-04-09T02:32:05;5.60;99.90
7290;DHT22;63176;52.678;13.250;2023-04-09T02:34:31;5.70;99.90
7290;DHT22;63176;52.678;13.250;2023-04-09T02:36:57;5.40;99.90
7290;DHT22;63176;52.678;13.250;2023-04-09T02:39:22;5.60;99.90
7290;DHT22;63176;52.678;13.250;2023-04-09T02:41:48;5.60;99.90
7290;DHT22;63176;52.678;13.250;2023-04-09T02:44:13;5.80;99.90
7290;DHT22;63176;52.678;13.250;2023-04-09T02:46:40;5.60;99.90
7290;DHT22;63176;52.678;13.250;2023-04-09T02:49:05;5.70;99.90
7290;DHT22;63176;52.678;13.250;2023-04-09T02:51:36;5.70;99.90
7290;DHT22;63176;52.678;13.250;2023-04-09T02:54:02;5.80;99.90
7290;DHT22;63176;52.678;13.250;2023-04-09T02:56:28;5.80;99.90
7290;DHT22;63176;52.678;13.250;2023-04-09T02:58:54;5.80;99.90
7290;DHT22;63176;52.678;13.250;2023-04-09T03:01:20;5.90;99.90
7290;DHT22;63176;52.678;13.250;2023-04-09T03:03:46;5.80;99.90
7290;DHT22;63176;52.678;13.250;2023-04-09T03:06:11;6.10;99.90
7290;DHT22;63176;52.678;13.250;2023-04-09T03:08:37;5.90;99.90
7290;DHT22;63176;52.678;13.250;2023-04-09T03:11:03;5.90;99.90
7290;DHT22;63176;52.678;13.250;2023-04-09T03:13:28;6.00;99.90
7290;DHT22;63176;52.678;13.250;2023-04-09T03:15:54;6.00;99.90
7290;DHT22;63176;52.678;13.250;2023-04-09T03:18:20;5.90;99.90
7290;DHT22;63176;52.678;13.250;2023-04-09T03:20:46;6.00;99.90
7290;DHT22;63176;52.678;13.250;2023-04-09T03:23:11;5.90;99.90
7290;DHT22;63176;52.678;13.250;2023-04-09T03:25:37;6.20;99.90
7290;DHT22;63176;52.678;13.250;2023-04-09T03:28:02;6.00;99.90
7290;DHT22;63176;52.678;13.250;2023-04-09T03:30:29;5.90;99.90
7290;DHT22;63176;52.678;13.250;2023-04-09T03:32:54;5.90;99.90
7290;DHT22;63176;52.678;13.250;2023-04-09T03:35:20;5.80;99.90
7290;DHT22;63176;52.678;13.250;2023-04-09T03:37:46;5.70;99.90
7290;DHT22;63176;52.678;13.250;2023-04-09T03:40:12;5.80;99.90
7290;DHT22;63176;52.678;13.250;2023-04-09T03:42:38;5.80;99.90
7290;DHT22;63176;52.678;13.250;2023-04-09T03:45:04;5.80;99.90
7290;DHT22;63176;52.678;13.250;2023-04-09T03:47:30;5.80;99.90
7290;DHT22;63176;52.678;13.250;2023-04-09T03:49:57;6.00;99.90
7290;DHT22;63176;52.678;13.250;2023-04-09T03:52:22;5.90;99.90
7290;DHT22;63176;52.678;13.250;2023-04-09T03:54:48;5.80;99.90
7290;DHT22;63176;52.678;13.250;2023-04-09T03:57:14;6.00;99.90
7290;DHT22;63176;52.678;13.250;2023-04-09T03:59:39;6.00;99.90
7290;DHT22;63176;52.678;13.250;2023-04-09T04:02:05;5.80;99.90
7290;DHT22;63176;52.678;13.250;2023-04-09T04:04:30;5.80;99.90
7290;DHT22;63176;52.678;13.250;2023-04-09T04:06:56;5.80;99.90
7290;DHT22;63176;52.678;13.250;2023-04-09T04:09:22;5.80;99.90
7290;DHT22;63176;52.678;13.250;2023-04-09T04:11:47;5.80;99.90
7290;DHT22;63176;52.678;13.250;2023-04-09T04:14:13;5.80;99.90
7290;DHT22;63176;52.678;13.250;2023-04-09T04:16:39;5.70;99.90
7290;DHT22;63176;52.678;13.250;2023-04-09T04:19:05;5.90;99.90
7290;DHT22;63176;52.678;13.250;2023-04-09T04:21:31;6.00;99.90
7290;DHT22;63176;52.678;13.250;2023-04-09T04:23:56;5.90;99.90
7290;DHT22;63176;52.678;13.250;2023-04-09T04:26:22;5.90;99.90
7290;DHT22;63176;52.678;13.250;2023-04-09T04:28:48;6.00;99.90
7290;DHT22;63176;52.678;13.250;2023-04-09T04:31:13;5.90;99.90
7290;DHT22;63176;52.678;13.250;2023-04-09T04:33:40;6.20;99.90
7290;DHT22;63176;52.678;13.250;2023-04-09T04:36:08;6.00;99.90
7290;DHT22;63176;52.678;13.250;2023-04-09T04:38:34;5.90;99.90
7290;DHT22;63176;52.678;13.250;2023-04-09T04:41:01;6.00;99.90
7290;DHT22;63176;52.678;13.250;2023-04-09T04:43:26;6.00;99.90
7290;DHT22;63176;52.678;13.250;2023-04-09T04:45:52;5.90;99.90
7290;DHT22;63176;52.678;13.250;2023-04-09T04:48:18;6.20;99.90
7290;DHT22;63176;52.678;13.250;2023-04-09T04:50:44;6.00;99.90
7290;DHT22;63176;52.678;13.250;2023-04-09T04:53:09;6.20;99.90
7290;DHT22;63176;52.678;13.250;2023-04-09T04:55:35;6.00;99.90
7290;DHT22;63176;52.678;13.250;2023-04-09T04:58:02;6.20;99.90
7290;DHT22;63176;52.678;13.250;2023-04-09T05:00:27;6.20;99.90
7290;DHT22;63176;52.678;13.250;2023-04-09T05:02:53;6.30;99.90
7290;DHT22;63176;52.678;13.250;2023-04-09T05:05:18;6.00;99.90
7290;DHT22;63176;52.678;13.250;2023-04-09T05:07:44;6.20;99.90
7290;DHT22;63176;52.678;13.250;2023-04-09T05:10:09;6.20;99.90
7290;DHT22;63176;52.678;13.250;2023-04-09T05:12:35;6.10;99.90
7290;DHT22;63176;52.678;13.250;2023-04-09T05:15:01;6.20;99.90
7290;DHT22;63176;52.678;13.250;2023-04-09T05:17:27;6.20;99.90
7290;DHT22;63176;52.678;13.250;2023-04-09T05:19:53;6.40;99.90
7290;DHT22;63176;52.678;13.250;2023-04-09T05:22:19;6.20;99.90
7290;DHT22;63176;52.678;13.250;2023-04-09T05:24:45;6.20;99.90
7290;DHT22;63176;52.678;13.250;2023-04-09T05:27:10;6.40;99.90
7290;DHT22;63176;52.678;13.250;2023-04-09T05:29:36;6.20;99.90
7290;DHT22;63176;52.678;13.250;2023-04-09T05:32:01;6.20;99.90
7290;DHT22;63176;52.678;13.250;2023-04-09T05:34:28;6.30;99.90
7290;DHT22;63176;52.678;13.250;2023-04-09T05:36:53;6.40;99.90
7290;DHT22;63176;52.678;13.250;2023-04-09T05:39:19;6.30;99.90
7290;DHT22;63176;52.678;13.250;2023-04-09T05:41:45;6.40;99.90
7290;DHT22;63176;52.678;13.250;2023-04-09T05:44:11;6.40;99.90
7290;DHT22;63176;52.678;13.250;2023-04-09T05:46:37;6.30;99.90
7290;DHT22;63176;52.678;13.250;2023-04-09T05:49:03;6.40;99.90
7290;DHT22;63176;52.678;13.250;2023-04-09T05:51:29;6.30;99.90
7290;DHT22;63176;52.678;13.250;2023-04-09T05:53:54;6.30;99.90
7290;DHT22;63176;52.678;13.250;2023-04-09T05:56:20;6.30;99.90
7290;DHT22;63176;52.678;13.250;2023-04-09T05:58:49;6.40;99.90
7290;DHT22;63176;52.678;13.250;2023-04-09T06:01:15;6.50;99.90
7290;DHT22;63176;52.678;13.250;2023-04-09T06:03:41;6.50;99.90
7290;DHT22;63176;52.678;13.250;2023-04-09T06:06:07;6.50;99.90
7290;DHT22;63176;52.678;13.250;2023-04-09T06:08:33;6.40;99.90
7290;DHT22;63176;52.678;13.250;2023-04-09T06:10:58;6.50;99.90
7290;DHT22;63176;52.678;13.250;2023-04-09T06:13:24;6.30;99.90
7290;DHT22;63176;52.678;13.250;2023-04-09T06:15:49;6.50;99.90
7290;DHT22;63176;52.678;13.250;2023-04-09T06:18:15;6.50;99.90
7290;DHT22;63176;52.678;13.250;2023-04-09T06:20:41;6.50;99.90
7290;DHT22;63176;52.678;13.250;2023-04-09T06:23:07;6.50;99.90
7290;DHT22;63176;52.678;13.250;2023-04-09T06:25:32;6.50;99.90
7290;DHT22;63176;52.678;13.250;2023-04-09T06:27:58;6.50;99.90
7290;DHT22;63176;52.678;13.250;2023-04-09T06:30:23;6.70;99.90
7290;DHT22;63176;52.678;13.250;2023-04-09T06:32:49;6.50;99.90
7290;DHT22;63176;52.678;13.250;2023-04-09T06:35:15;6.40;99.90
7290;DHT22;63176;52.678;13.250;2023-04-09T06:37:41;6.50;99.90
7290;DHT22;63176;52.678;13.250;2023-04-09T06:40:07;6.50;99.90
7290;DHT22;63176;52.678;13.250;2023-04-09T06:42:33;6.50;99.90
7290;DHT22;63176;52.678;13.250;2023-04-09T06:44:58;6.50;99.90
7290;DHT22;63176;52.678;13.250;2023-04-09T06:47:24;6.50;99.90
7290;DHT22;63176;52.678;13.250;2023-04-09T06:49:49;6.50;99.90
7290;DHT22;63176;52.678;13.250;2023-04-09T06:52:15;6.50;99.90
7290;DHT22;63176;52.678;13.250;2023-04-09T06:54:41;6.50;99.90
7290;DHT22;63176;52.678;13.250;2023-04-09T06:57:07;6.60;99.90
7290;DHT22;63176;52.678;13.250;2023-04-09T06:59:33;6.30;99.90
7290;DHT22;63176;52.678;13.250;2023-04-09T07:01:59;6.50;99.90
7290;DHT22;63176;52.678;13.250;2023-04-09T07:04:25;6.70;99.90
7290;DHT22;63176;52.678;13.250;2023-04-09T07:06:51;6.50;99.90
7290;DHT22;63176;52.678;13.250;2023-04-09T07:09:19;6.50;99.90
7290;DHT22;63176;52.678;13.250;2023-04-09T07:11:45;6.50;99.90
7290;DHT22;63176;52.678;13.250;2023-04-09T07:14:10;6.40;99.90
7290;DHT22;63176;52.678;13.250;2023-04-09T07:16:36;6.80;99.90
7290;DHT22;63176;52.678;13.250;2023-04-09T07:19:02;6.60;99.90
7290;DHT22;63176;52.678;13.250;2023-04-09T07:21:27;6.60;99.90
7290;DHT22;63176;52.678;13.250;2023-04-09T07:23:53;6.80;99.90
7290;DHT22;63176;52.678;13.250;2023-04-09T07:26:19;6.60;99.90
7290;DHT22;63176;52.678;13.250;2023-04-09T07:28:45;6.60;99.90
7290;DHT22;63176;52.678;13.250;2023-04-09T07:31:11;6.60;99.90
7290;DHT22;63176;52.678;13.250;2023-04-09T07:33:37;6.70;99.90
7290;DHT22;63176;52.678;13.250;2023-04-09T07:36:03;6.80;99.90
7290;DHT22;63176;52.678;13.250;2023-04-09T07:38:28;6.70;99.90
7290;DHT22;63176;52.678;13.250;2023-04-09T07:40:54;6.70;99.90
7290;DHT22;63176;52.678;13.250;2023-04-09T07:43:20;6.80;99.90
7290;DHT22;63176;52.678;13.250;2023-04-09T07:45:48;6.70;99.90
7290;DHT22;63176;52.678;13.250;2023-04-09T07:48:15;6.90;99.90
7290;DHT22;63176;52.678;13.250;2023-04-09T07:50:41;6.80;99.90
7290;DHT22;63176;52.678;13.250;2023-04-09T07:53:06;6.80;99.90
7290;DHT22;63176;52.678;13.250;2023-04-09T07:55:32;6.70;99.90
7290;DHT22;63176;52.678;13.250;2023-04-09T07:57:58;6.70;99.90
7290;DHT22;63176;52.678;13.250;2023-04-09T08:00:24;6.70;99.90
7290;DHT22;63176;52.678;13.250;2023-04-09T08:02:49;6.70;99.90
7290;DHT22;63176;52.678;13.250;2023-04-09T08:05:15;6.80;99.90
7290;DHT22;63176;52.678;13.250;2023-04-09T08:07:40;6.90;99.90
7290;DHT22;63176;52.678;13.250;2023-04-09T08:10:06;6.80;99.90
7290;DHT22;63176;52.678;13.250;2023-04-09T08:12:33;6.90;99.90
7290;DHT22;63176;52.678;13.250;2023-04-09T08:14:58;6.90;99.90
7290;DHT22;63176;52.678;13.250;2023-04-09T08:17:25;6.90;99.90
7290;DHT22;63176;52.678;13.250;2023-04-09T08:19:51;6.80;99.90
7290;DHT22;63176;52.678;13.250;2023-04-09T08:22:17;6.90;99.90
7290;DHT22;63176;52.678;13.250;2023-04-09T08:24:42;6.90;99.90
7290;DHT22;63176;52.678;13.250;2023-04-09T08:27:08;7.20;99.90
7290;DHT22;63176;52.678;13.250;2023-04-09T08:29:34;7.20;99.90
7290;DHT22;63176;52.678;13.250;2023-04-09T08:32:00;7.10;99.90
7290;DHT22;63176;52.678;13.250;2023-04-09T08:34:26;7.20;99.90
7290;DHT22;63176;52.678;13.250;2023-04-09T08:36:51;7.30;99.90
7290;DHT22;63176;52.678;13.250;2023-04-09T08:39:17;7.40;99.90
7290;DHT22;63176;52.678;13.250;2023-04-09T08:41:45;7.30;99.90
7290;DHT22;63176;52.678;13.250;2023-04-09T08:44:12;7.30;99.90
7290;DHT22;63176;52.678;13.250;2023-04-09T08:46:38;7.30;99.90
7290;DHT22;63176;52.678;13.250;2023-04-09T08:49:04;7.20;99.90
7290;DHT22;63176;52.678;13.250;2023-04-09T08:51:29;7.30;99.90
7290;DHT22;63176;52.678;13.250;2023-04-09T08:53:57;7.30;99.90
7290;DHT22;63176;52.678;13.250;2023-04-09T08:56:23;7.60;99.90
7290;DHT22;63176;52.678;13.250;2023-04-09T08:58:49;7.40;99.90
7290;DHT22;63176;52.678;13.250;2023-04-09T09:01:22;7.30;99.90
7290;DHT22;63176;52.678;13.250;2023-04-09T09:03:55;7.30;99.90
7290;DHT22;63176;52.678;13.250;2023-04-09T09:06:22;7.30;99.90
7290;DHT22;63176;52.678;13.250;2023-04-09T09:09:08;7.30;99.90
7290;DHT22;63176;52.678;13.250;2023-04-09T09:11:54;7.50;99.90
7290;DHT22;63176;52.678;13.250;2023-04-09T09:14:20;7.30;99.90
7290;DHT22;63176;52.678;13.250;2023-04-09T09:17:04;7.40;99.90
7290;DHT22;63176;52.678;13.250;2023-04-09T09:19:32;7.30;99.90
7290;DHT22;63176;52.678;13.250;2023-04-09T09:22:04;7.60;99.90
7290;DHT22;63176;52.678;13.250;2023-04-09T09:24:30;7.60;99.90
7290;DHT22;63176;52.678;13.250;2023-04-09T09:27:00;7.70;99.90
7290;DHT22;63176;52.678;13.250;2023-04-09T09:29:27;7.70;99.90
7290;DHT22;63176;52.678;13.250;2023-04-09T09:31:54;7.80;99.90
7290;DHT22;63176;52.678;13.250;2023-04-09T09:34:21;7.90;99.90
7290;DHT22;63176;52.678;13.250;2023-04-09T09:36:47;7.90;99.90
7290;DHT22;63176;52.678;13.250;2023-04-09T09:39:14;7.70;99.90
7290;DHT22;63176;52.678;13.250;2023-04-09T09:41:42;8.00;99.90
7290;DHT22;63176;52.678;13.250;2023-04-09T09:44:09;7.90;99.90
7290;DHT22;63176;52.678;13.250;2023-04-09T09:46:37;7.70;99.90
7290;DHT22;63176;52.678;13.250;2023-04-09T09:49:04;7.70;99.90
7290;DHT22;63176;52.678;13.250;2023-04-09T09:51:31;7.80;99.90
7290;DHT22;63176;52.678;13.250;2023-04-09T09:53:57;7.90;99.90
7290;DHT22;63176;52.678;13.250;2023-04-09T09:56:30;8.00;99.90
7290;DHT22;63176;52.678;13.250;2023-04-09T09:59:12;8.00;99.90
7290;DHT22;63176;52.678;13.250;2023-04-09T10:01:40;8.20;99.90
7290;DHT22;63176;52.678;13.250;2023-04-09T10:04:08;8.00;99.90
7290;DHT22;63176;52.678;13.250;2023-04-09T10:06:42;8.30;99.90
7290;DHT22;63176;52.678;13.250;2023-04-09T10:09:08;8.10;99.90
7290;DHT22;63176;52.678;13.250;2023-04-09T10:11:35;8.00;99.90
7290;DHT22;63176;52.678;13.250;2023-04-09T10:14:02;8.10;99.90
7290;DHT22;63176;52.678;13.250;2023-04-09T10:16:28;8.30;99.90
7290;DHT22;63176;52.678;13.250;2023-04-09T10:18:58;8.30;99.90
7290;DHT22;63176;52.678;13.250;2023-04-09T10:23:54;8.50;99.90
7290;DHT22;63176;52.678;13.250;2023-04-09T10:26:20;8.40;99.90
7290;DHT22;63176;52.678;13.250;2023-04-09T10:29:12;8.20;99.90
7290;DHT22;63176;52.678;13.250;2023-04-09T10:32:03;8.40;99.90
7290;DHT22;63176;52.678;13.250;2023-04-09T10:34:29;8.50;99.90
7290;DHT22;63176;52.678;13.250;2023-04-09T10:36:59;8.50;99.90
7290;DHT22;63176;52.678;13.250;2023-04-09T10:39:32;8.60;99.90
7290;DHT22;63176;52.678;13.250;2023-04-09T10:42:00;8.50;99.90
7290;DHT22;63176;52.678;13.250;2023-04-09T10:44:29;8.70;99.90
7290;DHT22;63176;52.678;13.250;2023-04-09T10:46:59;8.80;99.90
7290;DHT22;63176;52.678;13.250;2023-04-09T10:49:26;8.60;99.90
7290;DHT22;63176;52.678;13.250;2023-04-09T10:52:05;8.70;99.90
7290;DHT22;63176;52.678;13.250;2023-04-09T10:59:52;8.70;99.90
7290;DHT22;63176;52.678;13.250;2023-04-09T11:10:30;8.90;99.90
7290;DHT22;63176;52.678;13.250;2023-04-09T11:12:56;9.00;99.90
7290;DHT22;63176;52.678;13.250;2023-04-09T11:15:22;9.10;99.90
7290;DHT22;63176;52.678;13.250;2023-04-09T11:17:48;9.20;99.90
7290;DHT22;63176;52.678;13.250;2023-04-09T11:20:24;9.30;99.90
7290;DHT22;63176;52.678;13.250;2023-04-09T11:22:52;9.30;99.90
7290;DHT22;63176;52.678;13.250;2023-04-09T11:25:25;9.20;99.90
7290;DHT22;63176;52.678;13.250;2023-04-09T11:27:52;9.30;99.90
7290;DHT22;63176;52.678;13.250;2023-04-09T11:30:18;9.30;99.90
7290;DHT22;63176;52.678;13.250;2023-04-09T11:32:44;9.30;99.90
7290;DHT22;63176;52.678;13.250;2023-04-09T11:35:14;9.30;99.90
7290;DHT22;63176;52.678;13.250;2023-04-09T11:37:41;9.40;99.90
7290;DHT22;63176;52.678;13.250;2023-04-09T11:40:27;9.40;99.90
7290;DHT22;63176;52.678;13.250;2023-04-09T11:42:54;9.50;99.90
7290;DHT22;63176;52.678;13.250;2023-04-09T11:45:23;9.50;99.90
7290;DHT22;63176;52.678;13.250;2023-04-09T11:47:50;9.60;99.90
7290;DHT22;63176;52.678;13.250;2023-04-09T11:50:16;9.70;99.90
7290;DHT22;63176;52.678;13.250;2023-04-09T11:52:44;9.80;99.90
7290;DHT22;63176;52.678;13.250;2023-04-09T11:55:11;10.10;99.90
7290;DHT22;63176;52.678;13.250;2023-04-09T11:57:42;10.30;99.90
7290;DHT22;63176;52.678;13.250;2023-04-09T12:00:13;10.50;99.90
7290;DHT22;63176;52.678;13.250;2023-04-09T12:02:48;10.80;99.90
7290;DHT22;63176;52.678;13.250;2023-04-09T12:07:47;11.20;99.90
7290;DHT22;63176;52.678;13.250;2023-04-09T12:10:13;11.40;99.90
7290;DHT22;63176;52.678;13.250;2023-04-09T12:12:40;11.60;99.90
7290;DHT22;63176;52.678;13.250;2023-04-09T12:15:23;11.90;99.90
7290;DHT22;63176;52.678;13.250;2023-04-09T12:17:52;12.20;99.90
7290;DHT22;63176;52.678;13.250;2023-04-09T12:20:48;12.40;99.90
7290;DHT22;63176;52.678;13.250;2023-04-09T12:23:15;12.70;99.90
7290;DHT22;63176;52.678;13.250;2023-04-09T12:25:42;12.90;99.90
7290;DHT22;63176;52.678;13.250;2023-04-09T12:28:10;13.20;99.90
7290;DHT22;63176;52.678;13.250;2023-04-09T12:30:38;13.40;99.90
7290;DHT22;63176;52.678;13.250;2023-04-09T12:33:04;13.60;99.90
7290;DHT22;63176;52.678;13.250;2023-04-09T12:35:30;13.80;99.90
7290;DHT22;63176;52.678;13.250;2023-04-09T12:37:56;13.90;99.90
7290;DHT22;63176;52.678;13.250;2023-04-09T12:40:21;14.00;99.90
7290;DHT22;63176;52.678;13.250;2023-04-09T12:42:47;14.00;99.90
7290;DHT22;63176;52.678;13.250;2023-04-09T12:45:17;14.00;99.90
7290;DHT22;63176;52.678;13.250;2023-04-09T12:47:43;14.10;99.90
7290;DHT22;63176;52.678;13.250;2023-04-09T12:50:10;14.30;99.90
7290;DHT22;63176;52.678;13.250;2023-04-09T12:52:36;14.40;99.90
7290;DHT22;63176;52.678;13.250;2023-04-09T12:55:03;14.50;99.90
7290;DHT22;63176;52.678;13.250;2023-04-09T12:57:28;14.60;99.90
7290;DHT22;63176;52.678;13.250;2023-04-09T12:59:54;14.60;99.90
7290;DHT22;63176;52.678;13.250;2023-04-09T13:02:20;14.60;99.90
7290;DHT22;63176;52.678;13.250;2023-04-09T13:04:47;14.60;99.90
7290;DHT22;63176;52.678;13.250;2023-04-09T13:07:13;14.70;99.90
7290;DHT22;63176;52.678;13.250;2023-04-09T13:09:41;14.90;99.90
7290;DHT22;63176;52.678;13.250;2023-04-09T13:12:06;15.20;99.90
7290;DHT22;63176;52.678;13.250;2023-04-09T13:14:32;15.50;99.90
7290;DHT22;63176;52.678;13.250;2023-04-09T13:16:58;15.50;99.90
7290;DHT22;63176;52.678;13.250;2023-04-09T13:19:23;15.70;99.90
7290;DHT22;63176;52.678;13.250;2023-04-09T13:21:49;16.60;99.90
7290;DHT22;63176;52.678;13.250;2023-04-09T13:24:15;17.80;99.90
7290;DHT22;63176;52.678;13.250;2023-04-09T13:26:43;18.40;99.90
7290;DHT22;63176;52.678;13.250;2023-04-09T13:29:09;18.70;99.90
7290;DHT22;63176;52.678;13.250;2023-04-09T13:31:35;18.30;99.90
7290;DHT22;63176;52.678;13.250;2023-04-09T13:34:01;17.80;99.90
7290;DHT22;63176;52.678;13.250;2023-04-09T13:36:28;17.80;99.90
7290;DHT22;63176;52.678;13.250;2023-04-09T13:38:53;18.70;99.90
7290;DHT22;63176;52.678;13.250;2023-04-09T13:41:20;19.70;99.90
7290;DHT22;63176;52.678;13.250;2023-04-09T13:43:52;20.30;99.90
7290;DHT22;63176;52.678;13.250;2023-04-09T13:46:17;20.60;99.90
7290;DHT22;63176;52.678;13.250;2023-04-09T13:48:43;21.10;99.90
7290;DHT22;63176;52.678;13.250;2023-04-09T13:51:08;21.50;99.90
7290;DHT22;63176;52.678;13.250;2023-04-09T13:53:34;21.90;99.90
7290;DHT22;63176;52.678;13.250;2023-04-09T13:56:00;22.30;99.90
7290;DHT22;63176;52.678;13.250;2023-04-09T13:58:26;22.80;99.90
7290;DHT22;63176;52.678;13.250;2023-04-09T14:00:51;23.20;99.90
7290;DHT22;63176;52.678;13.250;2023-04-09T14:03:17;23.10;99.90
7290;DHT22;63176;52.678;13.250;2023-04-09T14:05:43;23.10;99.90
7290;DHT22;63176;52.678;13.250;2023-04-09T14:08:09;23.00;99.90
7290;DHT22;63176;52.678;13.250;2023-04-09T14:10:35;22.60;99.90
7290;DHT22;63176;52.678;13.250;2023-04-09T14:13:00;22.10;99.90
7290;DHT22;63176;52.678;13.250;2023-04-09T14:15:31;21.30;99.90
7290;DHT22;63176;52.678;13.250;2023-04-09T14:17:56;20.90;99.90
7290;DHT22;63176;52.678;13.250;2023-04-09T14:20:22;20.80;99.90
7290;DHT22;63176;52.678;13.250;2023-04-09T14:22:49;20.80;99.90
7290;DHT22;63176;52.678;13.250;2023-04-09T14:25:15;20.70;99.90
7290;DHT22;63176;52.678;13.250;2023-04-09T14:27:40;20.90;99.90
7290;DHT22;63176;52.678;13.250;2023-04-09T14:30:08;21.30;99.90
7290;DHT22;63176;52.678;13.250;2023-04-09T14:32:34;21.80;99.90
7290;DHT22;63176;52.678;13.250;2023-04-09T14:34:59;22.50;99.90
7290;DHT22;63176;52.678;13.250;2023-04-09T14:37:26;23.00;99.90
7290;DHT22;63176;52.678;13.250;2023-04-09T14:39:52;22.70;99.90
7290;DHT22;63176;52.678;13.250;2023-04-09T14:42:17;21.70;99.90
7290;DHT22;63176;52.678;13.250;2023-04-09T14:44:43;20.50;99.90
7290;DHT22;63176;52.678;13.250;2023-04-09T14:47:09;19.50;99.90
7290;DHT22;63176;52.678;13.250;2023-04-09T14:49:35;18.70;99.90
7290;DHT22;63176;52.678;13.250;2023-04-09T14:52:01;18.00;99.90
7290;DHT22;63176;52.678;13.250;2023-04-09T14:54:26;17.40;99.90
7290;DHT22;63176;52.678;13.250;2023-04-09T14:56:54;16.90;99.90
7290;DHT22;63176;52.678;13.250;2023-04-09T14:59:21;16.60;99.90
7290;DHT22;63176;52.678;13.250;2023-04-09T15:01:47;16.30;99.90
7290;DHT22;63176;52.678;13.250;2023-04-09T15:04:13;16.00;99.90
7290;DHT22;63176;52.678;13.250;2023-04-09T15:06:38;15.80;99.90
7290;DHT22;63176;52.678;13.250;2023-04-09T15:09:04;15.60;99.90
7290;DHT22;63176;52.678;13.250;2023-04-09T15:11:29;15.40;99.90
7290;DHT22;63176;52.678;13.250;2023-04-09T15:13:55;15.20;99.90
7290;DHT22;63176;52.678;13.250;2023-04-09T15:16:26;15.10;99.90
7290;DHT22;63176;52.678;13.250;2023-04-09T15:18:53;14.90;99.90
7290;DHT22;63176;52.678;13.250;2023-04-09T15:21:20;14.80;99.90
7290;DHT22;63176;52.678;13.250;2023-04-09T15:23:48;14.70;99.90
7290;DHT22;63176;52.678;13.250;2023-04-09T15:26:14;14.70;99.90
7290;DHT22;63176;52.678;13.250;2023-04-09T15:28:40;14.60;99.90
7290;DHT22;63176;52.678;13.250;2023-04-09T15:31:06;14.60;99.90
7290;DHT22;63176;52.678;13.250;2023-04-09T15:33:32;14.50;99.90
7290;DHT22;63176;52.678;13.250;2023-04-09T15:35:58;14.50;99.90
7290;DHT22;63176;52.678;13.250;2023-04-09T15:38:24;14.50;99.90
7290;DHT22;63176;52.678;13.250;2023-04-09T15:40:55;14.50;99.90
7290;DHT22;63176;52.678;13.250;2023-04-09T15:43:21;14.60;99.90
7290;DHT22;63176;52.678;13.250;2023-04-09T15:45:49;14.90;99.90
7290;DHT22;63176;52.678;13.250;2023-04-09T15:48:15;15.10;99.90
7290;DHT22;63176;52.678;13.250;2023-04-09T15:50:41;15.50;99.90
7290;DHT22;63176;52.678;13.250;2023-04-09T15:53:06;15.80;99.90
7290;DHT22;63176;52.678;13.250;2023-04-09T15:55:32;16.00;99.90
7290;DHT22;63176;52.678;13.250;2023-04-09T15:57:58;16.00;99.90
7290;DHT22;63176;52.678;13.250;2023-04-09T16:00:23;15.90;99.90
7290;DHT22;63176;52.678;13.250;2023-04-09T16:02:49;15.90;99.90
7290;DHT22;63176;52.678;13.250;2023-04-09T16:05:15;15.90;99.90
7290;DHT22;63176;52.678;13.250;2023-04-09T16:07:40;15.80;99.90
7290;DHT22;63176;52.678;13.250;2023-04-09T16:10:07;15.80;99.90